createdAt,value
2023-03-27T00:04:26.650Z,6.00
2023-03-27T00:09:33.975Z,6.00
2023-03-27T00:14:40.763Z,5.90
2023-03-27T00:19:47.947Z,5.90
2023-03-27T00:24:55.033Z,5.90
2023-03-27T00:30:02.380Z,5.90
2023-03-27T00:35:11.289Z,5.90
2023-03-27T00:40:21.406Z,5.80
2023-03-27T00:45:31.955Z,5.80
2023-03-27T00:50:42.274Z,5.80
2023-03-27T00:55:52.632Z,5.70
2023-03-27T01:01:00.136Z,5.50
2023-03-27T01:06:07.858Z,5.70
2023-03-27T01:11:47.609Z,5.60
2023-03-27T01:17:22.335Z,5.50
2023-03-27T01:23:02.199Z,5.40
2023-03-27T01:28:39.134Z,5.40
2023-03-27T01:34:43.292Z,5.40
2023-03-27T01:40:30.236Z,5.60
2023-03-27T01:45:50.641Z,5.50
2023-03-27T01:51:05.272Z,5.40
2023-03-27T01:56:25.918Z,5.60
2023-03-27T02:01:46.081Z,5.50
2023-03-27T02:07:03.039Z,5.50
2023-03-27T02:12:16.917Z,5.50
2023-03-27T02:17:28.224Z,5.40
2023-03-27T02:22:38.024Z,5.40
2023-03-27T02:27:47.032Z,5.30
2023-03-27T02:33:12.105Z,5.20
2023-03-27T02:38:41.727Z,5.20
2023-03-27T02:44:11.102Z,5.10
2023-03-27T02:49:24.861Z,5.20
2023-03-27T02:54:36.061Z,5.20
2023-03-27T02:59:47.140Z,5.20
2023-03-27T03:04:58.442Z,5.00
2023-03-27T03:10:06.691Z,4.90
2023-03-27T03:15:14.924Z,4.80
2023-03-27T03:20:22.312Z,4.90
2023-03-27T03:25:30.824Z,4.80
2023-03-27T03:30:39.234Z,4.80
2023-03-27T03:35:49.265Z,4.80
2023-03-27T03:40:59.106Z,4.70
2023-03-27T03:46:06.715Z,4.60
2023-03-27T03:51:13.878Z,4.50
2023-03-27T03:56:21.407Z,4.50
2023-03-27T04:01:28.709Z,4.50
2023-03-27T04:06:37.838Z,4.60
2023-03-27T04:11:44.679Z,4.50
2023-03-27T04:16:51.581Z,4.40
2023-03-27T04:22:01.013Z,4.60
2023-03-27T04:27:08.920Z,4.40
2023-03-27T04:32:20.282Z,4.40
2023-03-27T04:37:27.355Z,4.60
2023-03-27T04:42:34.429Z,4.70
2023-03-27T04:47:41.402Z,4.80
2023-03-27T04:52:50.320Z,4.70
2023-03-27T04:57:58.016Z,4.50
2023-03-27T05:03:04.879Z,4.40
2023-03-27T05:08:11.670Z,4.50
2023-03-27T05:13:18.436Z,4.80
2023-03-27T05:18:25.148Z,4.70
2023-03-27T05:23:32.524Z,4.60
2023-03-27T05:28:40.316Z,4.70
2023-03-27T05:33:47.016Z,4.90
2023-03-27T05:38:54.697Z,4.80
2023-03-27T05:44:03.989Z,4.70
2023-03-27T05:49:12.003Z,4.70
2023-03-27T05:54:18.734Z,4.70
2023-03-27T05:59:26.261Z,4.80
2023-03-27T06:04:34.404Z,4.90
2023-03-27T06:09:41.453Z,5.00
2023-03-27T06:14:48.245Z,5.00
2023-03-27T06:19:55.074Z,5.00
2023-03-27T06:25:01.915Z,5.20
2023-03-27T06:30:11.496Z,5.20
2023-03-27T06:35:19.090Z,5.30
2023-03-27T06:40:28.504Z,5.50
2023-03-27T06:45:41.127Z,5.50
2023-03-27T06:50:50.392Z,5.50
2023-03-27T06:55:57.777Z,5.60
2023-03-27T07:01:04.937Z,5.50
2023-03-27T07:06:11.796Z,5.80
2023-03-27T07:11:18.802Z,5.60
2023-03-27T07:16:25.850Z,5.70
2023-03-27T07:21:32.709Z,6.00
2023-03-27T07:26:39.435Z,6.00
2023-03-27T07:31:57.485Z,6.10
2023-03-27T07:36:54.863Z,6.40
2023-03-27T07:42:01.623Z,6.70
2023-03-27T07:47:09.593Z,6.90
2023-03-27T07:52:17.091Z,6.80
2023-03-27T07:57:23.867Z,7.00
2023-03-27T08:02:31.694Z,6.90
2023-03-27T08:07:41.013Z,6.60
2023-03-27T08:12:47.825Z,6.60
2023-03-27T08:17:56.956Z,6.40
2023-03-27T08:23:04.577Z,6.60
2023-03-27T08:28:11.790Z,6.90
2023-03-27T08:33:19.731Z,7.10
2023-03-27T08:38:28.033Z,7.10
2023-03-27T08:43:44.498Z,7.30
2023-03-27T08:48:59.237Z,7.50
2023-03-27T08:54:19.485Z,7.80
2023-03-27T08:59:29.742Z,8.10
2023-03-27T09:04:56.956Z,8.10
2023-03-27T09:10:23.130Z,8.00
2023-03-27T09:15:55.955Z,8.00
2023-03-27T09:21:12.793Z,8.00
2023-03-27T09:26:26.906Z,7.70
2023-03-27T09:31:37.633Z,7.80
2023-03-27T09:36:44.876Z,7.80
2023-03-27T09:42:07.157Z,8.10
2023-03-27T09:47:38.808Z,8.30
2023-03-27T09:52:44.355Z,8.30
2023-03-27T09:57:50.700Z,8.10
2023-03-27T10:03:10.974Z,7.90
2023-03-27T10:08:44.589Z,7.60
2023-03-27T10:13:53.320Z,7.20
2023-03-27T10:19:01.740Z,6.90
2023-03-27T10:24:21.952Z,6.50
2023-03-27T10:29:35.277Z,6.70
2023-03-27T10:34:59.119Z,7.00
2023-03-27T10:40:08.375Z,6.90
2023-03-27T10:45:21.659Z,6.70
2023-03-27T10:50:35.743Z,6.60
2023-03-27T10:56:04.617Z,7.00
2023-03-27T11:01:35.956Z,7.50
2023-03-27T11:06:46.604Z,8.50
2023-03-27T11:12:06.305Z,9.10
2023-03-27T11:17:18.418Z,9.70
2023-03-27T11:22:48.033Z,10.20
2023-03-27T11:28:14.429Z,9.90
2023-03-27T11:33:42.311Z,9.10
2023-03-27T11:39:06.629Z,9.50
2023-03-27T11:44:13.990Z,9.40
2023-03-27T11:49:33.984Z,9.70
2023-03-27T11:54:51.301Z,9.80
2023-03-27T12:00:17.183Z,9.90
2023-03-27T12:05:48.868Z,9.20
2023-03-27T12:10:59.182Z,9.10
2023-03-27T12:16:25.592Z,8.80
2023-03-27T12:21:47.158Z,8.30
2023-03-27T12:27:58.919Z,8.20
2023-03-27T12:33:30.782Z,8.90
2023-03-27T12:38:42.797Z,8.60
2023-03-27T12:43:50.966Z,8.00
2023-03-27T12:49:14.293Z,7.90
2023-03-27T12:54:38.204Z,7.70
2023-03-27T13:00:00.280Z,7.10
2023-03-27T13:05:46.030Z,7.10
2023-03-27T13:11:15.202Z,7.00
2023-03-27T13:16:48.684Z,6.30
2023-03-27T13:22:13.292Z,6.40
2023-03-27T13:28:12.308Z,6.50
2023-03-27T13:33:36.991Z,6.80
2023-03-27T13:38:54.638Z,6.70
2023-03-27T13:44:04.781Z,6.80
2023-03-27T13:49:24.703Z,6.80
2023-03-27T13:54:35.950Z,5.70
2023-03-27T13:59:50.073Z,6.10
2023-03-27T14:05:36.426Z,5.80
2023-03-27T14:11:11.577Z,5.80
2023-03-27T14:16:23.418Z,6.60
2023-03-27T14:21:38.841Z,6.00
2023-03-27T14:26:45.872Z,5.40
2023-03-27T14:31:54.736Z,5.80
2023-03-27T14:37:02.543Z,6.10
2023-03-27T14:42:17.085Z,6.10
2023-03-27T14:47:25.220Z,5.40
2023-03-27T14:52:35.650Z,6.10
2023-03-27T14:57:42.699Z,5.40
2023-03-27T15:02:52.842Z,5.50
2023-03-27T15:07:59.913Z,5.70
2023-03-27T15:13:08.928Z,6.00
2023-03-27T15:18:24.426Z,5.80
2023-03-27T15:23:47.769Z,5.20
2023-03-27T15:29:12.607Z,5.10
2023-03-27T15:34:31.053Z,4.70
2023-03-27T15:39:41.491Z,4.70
2023-03-27T15:44:48.344Z,4.60
2023-03-27T15:50:27.594Z,4.50
2023-03-27T15:55:42.531Z,4.60
2023-03-27T16:00:52.213Z,4.60
2023-03-27T16:06:00.546Z,4.40
2023-03-27T16:11:08.628Z,4.30
2023-03-27T16:16:25.861Z,4.10
2023-03-27T16:21:36.473Z,4.00
2023-03-27T16:26:45.291Z,3.70
2023-03-27T16:31:52.577Z,3.60
2023-03-27T16:37:00.049Z,3.70
2023-03-27T16:42:06.843Z,3.50
2023-03-27T16:47:14.789Z,3.40
2023-03-27T16:52:21.888Z,3.50
2023-03-27T16:57:28.976Z,3.30
2023-03-27T17:02:36.970Z,3.20
2023-03-27T17:07:45.194Z,2.50
2023-03-27T17:12:54.095Z,2.20
2023-03-27T17:18:01.184Z,2.20
2023-03-27T17:23:07.934Z,2.10
2023-03-27T17:28:15.410Z,2.10
2023-03-27T17:33:22.125Z,2.30
2023-03-27T17:38:29.181Z,2.40
2023-03-27T17:43:36.480Z,2.40
2023-03-27T17:48:44.895Z,2.40
2023-03-27T17:53:51.741Z,2.40
2023-03-27T17:58:58.610Z,2.50
2023-03-27T18:04:05.828Z,2.50
2023-03-27T18:09:12.871Z,2.40
2023-03-27T18:14:19.750Z,2.30
2023-03-27T18:19:26.852Z,2.40
2023-03-27T18:24:33.797Z,2.30
2023-03-27T18:29:41.175Z,2.30
2023-03-27T18:34:48.470Z,2.30
2023-03-27T18:39:55.610Z,2.20
2023-03-27T18:45:02.565Z,2.40
2023-03-27T18:50:11.029Z,2.20
2023-03-27T18:55:18.126Z,2.30
2023-03-27T19:00:25.124Z,2.30
2023-03-27T19:05:31.936Z,2.30
2023-03-27T19:10:40.162Z,2.50
2023-03-27T19:15:47.447Z,2.30
2023-03-27T19:20:55.970Z,2.40
2023-03-27T19:26:12.246Z,2.40
2023-03-27T19:31:19.462Z,2.40
2023-03-27T19:36:27.662Z,2.20
2023-03-27T19:41:34.705Z,2.50
2023-03-27T19:46:41.540Z,2.20
2023-03-27T19:51:49.154Z,2.40
2023-03-27T19:56:56.561Z,2.40
2023-03-27T20:02:04.509Z,2.50
2023-03-27T20:07:11.861Z,2.40
2023-03-27T20:12:20.052Z,2.60
2023-03-27T20:17:28.532Z,2.40
2023-03-27T20:22:46.326Z,2.30
2023-03-27T20:27:44.143Z,2.20
2023-03-27T20:32:51.310Z,2.40
2023-03-27T20:37:58.621Z,2.30
2023-03-27T20:43:06.356Z,2.30
2023-03-27T20:48:15.476Z,2.30
2023-03-27T20:53:32.432Z,2.30
2023-03-27T20:58:40.316Z,2.30
2023-03-27T21:03:49.286Z,2.20
2023-03-27T21:08:56.647Z,2.20
2023-03-27T21:14:03.743Z,2.30
2023-03-27T21:19:12.477Z,2.20
2023-03-27T21:24:20.787Z,2.30
2023-03-27T21:29:28.021Z,2.30
2023-03-27T21:34:34.720Z,2.20
2023-03-27T21:39:41.538Z,2.10
2023-03-27T21:44:53.628Z,2.20
2023-03-27T21:49:57.896Z,2.20
2023-03-27T21:55:05.711Z,1.90
2023-03-27T22:00:14.726Z,1.90
2023-03-27T22:06:28.915Z,1.80
2023-03-27T22:11:35.689Z,1.70
2023-03-27T22:16:43.963Z,1.60
2023-03-27T22:21:51.177Z,1.50
2023-03-27T22:26:58.249Z,1.40
2023-03-27T22:32:05.846Z,1.40
2023-03-27T22:37:12.922Z,1.40
2023-03-27T22:42:20.080Z,1.60
2023-03-27T22:47:27.852Z,1.40
2023-03-27T22:52:34.787Z,1.50
2023-03-27T22:57:41.562Z,1.60
2023-03-27T23:02:48.809Z,1.50
2023-03-27T23:07:55.776Z,1.60
2023-03-27T23:13:04.866Z,1.40
2023-03-27T23:18:12.078Z,1.20
2023-03-27T23:23:18.912Z,0.80
2023-03-27T23:28:27.336Z,1.00
2023-03-27T23:33:41.432Z,1.00
2023-03-27T23:38:48.383Z,1.00
2023-03-27T23:43:55.540Z,1.10
2023-03-27T23:49:02.621Z,1.30
2023-03-27T23:54:09.369Z,1.30
2023-03-27T23:59:16.962Z,1.00
